Time;durP1;ratioP1;P1;durP2;ratioP2;P2;SDS_P1;SDS_P2;PMS_P1;PMS_P2;Temp;Humidity;BMP_temperature;BMP_pressure;BME280_temperature;BME280_humidity;BME280_pressure;Samples;Min_cycle;Max_cycle;Signal;HPM_P1;HPM_P2
2022/09/29 00:00:58;;;;;;;5.10;4.60;;;8.00;99.90;;;;;;6213304;22;20261;-79
2022/09/29 00:03:25;;;;;;;6.22;5.63;;;7.90;99.90;;;;;;6237286;22;20221;-79
2022/09/29 00:05:53;;;;;;;5.93;5.30;;;7.90;99.90;;;;;;6236582;22;20675;-79
2022/09/29 00:08:23;;;;;;;5.97;5.47;;;7.90;99.90;;;;;;6241238;22;20260;-79
2022/09/29 00:10:50;;;;;;;5.85;5.25;;;7.90;99.90;;;;;;6255756;22;20642;-79
2022/09/29 00:13:18;;;;;;;7.60;5.82;;;7.90;99.90;;;;;;6236713;22;20216;-79
2022/09/29 00:15:54;;;;;;;7.32;5.80;;;7.80;99.90;;;;;;6237645;22;20193;-79
2022/09/29 00:18:21;;;;;;;6.22;5.63;;;7.80;99.90;;;;;;6236176;22;20216;-79
2022/09/29 00:20:56;;;;;;;6.30;5.80;;;7.80;99.90;;;;;;6236265;22;20188;-80
2022/09/29 00:23:24;;;;;;;8.55;6.57;;;7.80;99.90;;;;;;6237308;22;20209;-79
2022/09/29 00:26:00;;;;;;;6.90;5.35;;;7.80;99.90;;;;;;6243977;22;20193;-79
2022/09/29 00:28:29;;;;;;;6.55;5.82;;;7.80;99.90;;;;;;6235574;22;20539;-79
2022/09/29 00:30:57;;;;;;;8.50;6.60;;;7.80;99.90;;;;;;6234692;22;20189;-79
2022/09/29 00:33:24;;;;;;;6.72;5.75;;;7.80;99.90;;;;;;6245292;22;20271;-79
2022/09/29 00:36:02;;;;;;;6.75;6.05;;;7.80;99.90;;;;;;6238429;22;20220;-79
2022/09/29 00:38:30;;;;;;;6.47;5.90;;;7.80;99.90;;;;;;6229032;22;20234;-79
2022/09/29 00:40:57;;;;;;;9.85;6.13;;;7.80;99.90;;;;;;6237158;22;20193;-79
2022/09/29 00:43:45;;;;;;;7.50;6.70;;;7.80;99.90;;;;;;6227909;22;20692;-79
2022/09/29 00:46:15;;;;;;;6.82;6.22;;;7.80;99.90;;;;;;6245504;22;20208;-80
2022/09/29 00:48:43;;;;;;;7.30;6.60;;;7.80;99.90;;;;;;6234770;22;20206;-79
2022/09/29 00:51:11;;;;;;;7.07;5.70;;;7.80;99.90;;;;;;6238305;22;20241;-79
2022/09/29 00:53:38;;;;;;;7.43;6.65;;;7.80;99.90;;;;;;6239702;22;20205;-79
2022/09/29 00:56:10;;;;;;;6.75;6.13;;;7.80;99.90;;;;;;6249327;22;20188;-79
2022/09/29 00:58:42;;;;;;;8.13;6.90;;;7.80;99.90;;;;;;6237203;22;20213;-79
2022/09/29 01:01:11;;;;;;;6.43;5.80;;;7.80;99.90;;;;;;6239996;22;20224;-79
2022/09/29 01:03:43;;;;;;;8.35;6.78;;;7.80;99.90;;;;;;6236240;22;20244;-80
2022/09/29 01:06:15;;;;;;;6.72;6.03;;;7.80;99.90;;;;;;6239660;23;20242;-80
2022/09/29 01:08:47;;;;;;;7.75;6.75;;;7.80;99.90;;;;;;6236054;22;20208;-79
2022/09/29 01:11:15;;;;;;;7.45;6.75;;;7.80;99.90;;;;;;6236869;22;20276;-79
2022/09/29 01:13:42;;;;;;;7.45;6.72;;;7.70;99.90;;;;;;6238376;22;20719;-79
2022/09/29 01:16:09;;;;;;;9.80;7.00;;;7.80;99.90;;;;;;6232873;22;20188;-79
2022/09/29 01:18:37;;;;;;;8.38;6.53;;;7.80;99.90;;;;;;6236186;22;20199;-79
2022/09/29 01:21:15;;;;;;;8.57;6.80;;;7.80;99.90;;;;;;6237810;22;20680;-79
2022/09/29 01:24:21;;;;;;;7.38;6.68;;;7.80;99.90;;;;;;6248412;22;20208;-79
2022/09/29 01:27:11;;;;;;;7.82;6.80;;;7.80;99.90;;;;;;6220495;22;20664;-79
2022/09/29 01:30:11;;;;;;;7.22;6.63;;;7.70;99.90;;;;;;6238431;22;20631;-79
2022/09/29 01:32:56;;;;;;;7.38;6.70;;;7.80;99.90;;;;;;6239254;22;20301;-79
2022/09/29 01:35:28;;;;;;;7.40;6.43;;;7.80;99.90;;;;;;6232288;22;20185;-79
2022/09/29 01:38:08;;;;;;;7.57;6.90;;;7.80;99.90;;;;;;6233248;22;20214;-79
2022/09/29 01:40:44;;;;;;;8.00;7.30;;;7.80;99.90;;;;;;6239189;23;20234;-79
2022/09/29 01:43:17;;;;;;;7.93;6.70;;;7.80;99.90;;;;;;6237913;22;20315;-79
2022/09/29 01:45:48;;;;;;;8.95;8.05;;;7.90;99.90;;;;;;6239981;22;20216;-79
2022/09/29 01:48:22;;;;;;;8.40;7.03;;;7.90;99.90;;;;;;6234998;22;20208;-79
2022/09/29 01:50:54;;;;;;;7.22;6.63;;;7.90;99.90;;;;;;6236231;22;20220;-79
2022/09/29 01:53:25;;;;;;;7.07;6.38;;;7.90;99.90;;;;;;6239421;22;20263;-79
2022/09/29 01:55:58;;;;;;;7.32;6.63;;;7.90;99.90;;;;;;6232025;22;20273;-80
2022/09/29 01:58:30;;;;;;;7.03;6.40;;;8.00;99.90;;;;;;6237294;22;20212;-79
2022/09/29 02:01:00;;;;;;;7.43;6.60;;;8.00;99.90;;;;;;6233258;22;20205;-79
2022/09/29 02:03:31;;;;;;;8.30;7.60;;;8.00;99.90;;;;;;6234692;22;20713;-79
2022/09/29 02:06:01;;;;;;;7.55;6.88;;;8.00;99.90;;;;;;6222517;22;20720;-79
2022/09/29 02:08:32;;;;;;;7.85;5.93;;;8.00;99.90;;;;;;6235063;22;20593;-79
2022/09/29 02:11:04;;;;;;;7.25;6.45;;;8.10;99.90;;;;;;6248518;22;20256;-79
2022/09/29 02:13:35;;;;;;;7.57;6.88;;;8.00;99.90;;;;;;6239007;22;20209;-79
2022/09/29 02:16:04;;;;;;;7.82;6.78;;;8.00;99.90;;;;;;6232846;22;20185;-79
2022/09/29 02:18:37;;;;;;;7.75;7.05;;;8.00;99.90;;;;;;6235957;22;20272;-79
2022/09/29 02:21:04;;;;;;;8.25;7.38;;;8.10;99.90;;;;;;6237398;22;20251;-79
2022/09/29 02:23:31;;;;;;;9.85;7.45;;;8.10;99.90;;;;;;6239604;22;20226;-79
2022/09/29 02:26:00;;;;;;;8.40;7.22;;;8.10;99.90;;;;;;6235341;22;21017;-79
2022/09/29 02:28:28;;;;;;;8.00;7.03;;;8.10;99.90;;;;;;6238660;22;20193;-78
2022/09/29 02:30:55;;;;;;;8.05;7.25;;;8.10;99.90;;;;;;6238175;22;20688;-79
2022/09/29 02:33:25;;;;;;;7.60;6.78;;;8.20;99.90;;;;;;6239586;22;20278;-79
2022/09/29 02:36:04;;;;;;;7.45;6.53;;;8.20;99.90;;;;;;6235973;22;20215;-79
2022/09/29 02:38:42;;;;;;;8.57;7.75;;;8.20;99.90;;;;;;6238182;22;20630;-79
2022/09/29 02:41:31;;;;;;;8.48;7.30;;;8.10;99.90;;;;;;6240031;23;20190;-79
2022/09/29 02:44:13;;;;;;;7.38;6.50;;;8.10;99.90;;;;;;6243966;22;20196;-80
2022/09/29 02:46:54;;;;;;;7.40;6.70;;;8.10;99.90;;;;;;6234081;22;20196;-79
2022/09/29 02:49:38;;;;;;;7.75;6.95;;;8.20;99.90;;;;;;6237726;22;20300;-79
2022/09/29 02:52:17;;;;;;;6.30;5.80;;;8.20;99.90;;;;;;6237523;22;20296;-80
2022/09/29 02:54:55;;;;;;;7.30;6.18;;;8.20;99.90;;;;;;6239300;23;20203;-79
2022/09/29 02:57:31;;;;;;;7.30;6.10;;;8.20;99.90;;;;;;6238067;22;20214;-79
2022/09/29 03:00:07;;;;;;;8.05;6.88;;;8.20;99.90;;;;;;6232335;22;20218;-79
2022/09/29 03:02:35;;;;;;;7.28;6.57;;;8.20;99.90;;;;;;6234564;22;20217;-79
2022/09/29 03:05:03;;;;;;;6.90;6.20;;;8.20;99.90;;;;;;6236231;22;20722;-80
2022/09/29 03:07:31;;;;;;;6.70;6.00;;;8.30;99.90;;;;;;6236982;22;20273;-79
2022/09/29 03:09:58;;;;;;;7.18;6.38;;;8.30;99.90;;;;;;6237573;22;20270;-80
2022/09/29 03:12:25;;;;;;;6.70;6.10;;;8.30;99.90;;;;;;6238773;22;20218;-79
2022/09/29 03:14:52;;;;;;;6.32;5.82;;;8.30;99.90;;;;;;6247706;22;20193;-80
2022/09/29 03:17:19;;;;;;;6.70;5.97;;;8.30;99.90;;;;;;6222770;22;20245;-80
2022/09/29 03:19:46;;;;;;;6.00;5.50;;;8.40;99.90;;;;;;6237914;22;20187;-80
2022/09/29 03:22:13;;;;;;;6.20;5.60;;;8.40;99.90;;;;;;6236122;22;20205;-80
2022/09/29 03:24:42;;;;;;;5.97;5.47;;;8.40;99.90;;;;;;6243672;22;20646;-80
2022/09/29 03:27:09;;;;;;;7.57;5.32;;;8.40;99.90;;;;;;6234872;23;20594;-80
2022/09/29 03:29:37;;;;;;;5.72;5.28;;;8.50;99.90;;;;;;6236043;22;20210;-80
2022/09/29 03:32:05;;;;;;;6.13;5.07;;;8.50;99.90;;;;;;6245396;22;20678;-80
2022/09/29 03:34:32;;;;;;;6.15;5.45;;;8.50;99.90;;;;;;6230472;22;20275;-80
2022/09/29 03:37:00;;;;;;;5.55;4.70;;;8.50;99.90;;;;;;6234367;22;20186;-80
2022/09/29 03:39:27;;;;;;;8.02;4.88;;;8.50;99.90;;;;;;6237734;22;20646;-80
2022/09/29 03:41:56;;;;;;;5.93;4.75;;;8.50;99.90;;;;;;6244585;22;20215;-79
2022/09/29 03:44:23;;;;;;;4.60;4.20;;;8.50;99.90;;;;;;6233283;22;20651;-83
2022/09/29 03:46:50;;;;;;;5.75;5.03;;;8.60;99.90;;;;;;6235540;22;20260;-87
2022/09/29 03:49:17;;;;;;;5.70;5.05;;;8.60;99.90;;;;;;6236716;23;20666;-88
2022/09/29 03:51:44;;;;;;;5.15;4.75;;;8.60;99.90;;;;;;6240405;22;20241;-84
2022/09/29 03:54:11;;;;;;;5.63;4.50;;;8.60;99.90;;;;;;6233862;22;20203;-86
2022/09/29 03:56:39;;;;;;;5.03;4.40;;;8.60;99.90;;;;;;6234424;22;20229;-80
2022/09/29 03:59:10;;;;;;;5.50;4.47;;;8.60;99.90;;;;;;6240866;22;20534;-81
2022/09/29 04:01:38;;;;;;;5.32;4.15;;;8.60;99.90;;;;;;6249603;22;20214;-80
2022/09/29 04:04:06;;;;;;;6.15;4.90;;;8.60;99.90;;;;;;6238516;22;20251;-81
2022/09/29 04:06:35;;;;;;;5.53;5.05;;;8.50;99.90;;;;;;6228982;22;20181;-82
2022/09/29 04:09:02;;;;;;;5.00;4.60;;;8.60;99.90;;;;;;6233868;22;20196;-76
2022/09/29 04:11:29;;;;;;;6.00;5.38;;;8.50;99.90;;;;;;6235038;22;20222;-74
2022/09/29 04:13:56;;;;;;;5.70;5.18;;;8.60;99.90;;;;;;6234192;22;20220;-73
2022/09/29 04:16:24;;;;;;;5.20;4.70;;;8.60;99.90;;;;;;6237900;22;20195;-75
2022/09/29 04:18:51;;;;;;;5.40;4.95;;;8.60;99.90;;;;;;6239021;22;20200;-75
2022/09/29 04:21:18;;;;;;;6.10;5.38;;;8.60;99.90;;;;;;6235333;22;20296;-75
2022/09/29 04:23:45;;;;;;;5.40;4.90;;;8.60;99.90;;;;;;6231235;22;20195;-75
2022/09/29 04:26:13;;;;;;;5.72;5.22;;;8.60;99.90;;;;;;6242206;22;20279;-74
2022/09/29 04:28:40;;;;;;;6.05;5.10;;;8.60;99.90;;;;;;6233066;22;20212;-75
2022/09/29 04:31:07;;;;;;;6.63;6.03;;;8.50;99.90;;;;;;6233357;22;20325;-76
2022/09/29 04:33:36;;;;;;;6.82;4.85;;;8.60;99.90;;;;;;6242941;22;20367;-77
2022/09/29 04:36:04;;;;;;;6.20;5.45;;;8.50;99.90;;;;;;6220403;22;20190;-77
2022/09/29 04:38:31;;;;;;;5.30;4.80;;;8.50;99.90;;;;;;6221277;22;20260;-78
2022/09/29 04:40:59;;;;;;;5.68;5.18;;;8.50;99.90;;;;;;6226825;22;20281;-79
2022/09/29 04:43:26;;;;;;;6.30;5.70;;;8.50;99.90;;;;;;6230373;22;20304;-78
2022/09/29 04:45:53;;;;;;;6.03;5.47;;;8.50;99.90;;;;;;6231887;22;20190;-74
2022/09/29 04:48:20;;;;;;;5.57;5.07;;;8.50;99.90;;;;;;6231535;22;20541;-74
2022/09/29 04:50:50;;;;;;;5.40;4.90;;;8.50;99.90;;;;;;6230223;22;20260;-74
2022/09/29 04:53:17;;;;;;;5.60;5.00;;;8.50;99.90;;;;;;6232267;22;20206;-74
2022/09/29 04:55:44;;;;;;;6.22;5.65;;;8.50;99.90;;;;;;6236070;22;20209;-75
2022/09/29 04:58:11;;;;;;;6.15;5.43;;;8.50;99.90;;;;;;6226128;22;20236;-74
2022/09/29 05:00:38;;;;;;;5.90;5.40;;;8.40;99.90;;;;;;6232774;22;20225;-75
2022/09/29 05:03:05;;;;;;;6.03;5.03;;;8.40;99.90;;;;;;6231681;22;20620;-73
2022/09/29 05:05:32;;;;;;;6.65;5.50;;;8.30;99.90;;;;;;6235474;22;20185;-75
2022/09/29 05:08:03;;;;;;;5.93;5.40;;;8.30;99.90;;;;;;6226823;22;20187;-77
2022/09/29 05:10:30;;;;;;;6.15;5.13;;;8.20;99.90;;;;;;6217984;22;20267;-75
2022/09/29 05:12:57;;;;;;;6.43;5.85;;;8.10;99.90;;;;;;6231823;22;20259;-75
2022/09/29 05:15:24;;;;;;;5.97;5.38;;;8.00;99.90;;;;;;6229174;22;20190;-75
2022/09/29 05:17:51;;;;;;;6.25;5.47;;;7.90;99.90;;;;;;6230480;22;20209;-75
2022/09/29 05:20:18;;;;;;;10.68;6.30;;;7.80;99.90;;;;;;6231832;22;20232;-75
2022/09/29 05:22:45;;;;;;;6.60;5.70;;;7.60;99.90;;;;;;6231013;22;20204;-75
2022/09/29 05:25:14;;;;;;;6.68;6.18;;;7.50;99.90;;;;;;6236162;23;20181;-75
2022/09/29 05:27:41;;;;;;;6.10;5.60;;;7.50;99.90;;;;;;6243712;22;20184;-75
2022/09/29 05:30:09;;;;;;;6.72;5.80;;;7.40;99.90;;;;;;6227881;23;20634;-75
2022/09/29 05:32:36;;;;;;;6.70;6.10;;;7.40;99.90;;;;;;6253366;22;20203;-75
2022/09/29 05:35:03;;;;;;;6.93;6.32;;;7.40;99.90;;;;;;6238392;23;20567;-75
2022/09/29 05:37:30;;;;;;;6.68;6.18;;;7.30;99.90;;;;;;6248060;22;20189;-75
2022/09/29 05:39:57;;;;;;;6.63;6.03;;;7.30;99.90;;;;;;6235952;22;20547;-79
2022/09/29 05:42:26;;;;;;;6.80;6.20;;;7.20;99.90;;;;;;6234801;22;20619;-78
2022/09/29 05:44:53;;;;;;;6.32;5.70;;;7.30;99.90;;;;;;6232409;22;20581;-79
2022/09/29 05:47:21;;;;;;;6.15;5.45;;;7.20;99.90;;;;;;6238436;23;20646;-79
2022/09/29 05:49:48;;;;;;;6.20;5.60;;;7.20;99.90;;;;;;6232724;22;20537;-79
2022/09/29 05:52:15;;;;;;;8.18;5.93;;;7.30;99.90;;;;;;6230831;22;20232;-79
2022/09/29 05:54:42;;;;;;;5.97;5.25;;;7.20;99.90;;;;;;6234208;22;20189;-79
2022/09/29 05:57:09;;;;;;;8.45;6.13;;;7.20;99.90;;;;;;6232307;22;20215;-78
2022/09/29 05:59:38;;;;;;;8.10;6.85;;;7.30;99.90;;;;;;6231786;22;20204;-79
2022/09/29 06:02:05;;;;;;;7.20;6.55;;;7.30;99.90;;;;;;6233847;22;20612;-79
2022/09/29 06:04:32;;;;;;;7.15;6.47;;;7.30;99.90;;;;;;6236310;22;20181;-79
2022/09/29 06:06:59;;;;;;;7.25;6.55;;;7.40;99.90;;;;;;6237385;22;20188;-79
2022/09/29 06:09:26;;;;;;;7.40;6.72;;;7.40;99.90;;;;;;6245236;22;20185;-78
2022/09/29 06:11:53;;;;;;;7.70;6.70;;;7.40;99.90;;;;;;6236819;22;20612;-78
2022/09/29 06:14:20;;;;;;;11.25;7.25;;;7.50;99.90;;;;;;6237823;22;20195;-79
2022/09/29 06:16:49;;;;;;;7.00;6.25;;;7.50;99.90;;;;;;6245321;22;20192;-79
2022/09/29 06:19:16;;;;;;;7.45;6.85;;;7.50;99.90;;;;;;6238336;22;20571;-79
2022/09/29 06:21:43;;;;;;;7.30;6.55;;;7.50;99.90;;;;;;6236473;22;20212;-79
2022/09/29 06:24:10;;;;;;;7.57;6.97;;;7.60;99.90;;;;;;6237971;22;20220;-79
2022/09/29 06:26:37;;;;;;;7.60;7.00;;;7.70;99.90;;;;;;6235148;22;20542;-79
2022/09/29 06:29:04;;;;;;;7.85;7.10;;;7.70;99.90;;;;;;6235674;22;20263;-79
2022/09/29 06:31:32;;;;;;;7.57;6.40;;;7.80;99.90;;;;;;6237995;23;20213;-79
2022/09/29 06:34:02;;;;;;;8.05;7.00;;;7.90;99.90;;;;;;6236923;22;20209;-79
2022/09/29 06:39:19;;;;;;;10.85;6.78;;;8.00;99.90;;;;;;6232577;23;20690;-79
2022/09/29 06:41:50;;;;;;;6.85;6.13;;;8.10;99.90;;;;;;6224684;22;20241;-79
2022/09/29 06:44:17;;;;;;;8.13;6.32;;;8.10;99.90;;;;;;6234710;22;20633;-79
2022/09/29 06:46:44;;;;;;;7.03;6.30;;;8.20;99.90;;;;;;6238757;22;20233;-79
2022/09/29 06:49:14;;;;;;;6.32;5.72;;;8.10;99.90;;;;;;6235172;22;20185;-79
2022/09/29 06:51:41;;;;;;;6.65;5.95;;;8.20;99.90;;;;;;6235205;22;20214;-79
2022/09/29 06:54:08;;;;;;;7.03;6.35;;;8.30;99.90;;;;;;6233232;22;20192;-79
2022/09/29 06:56:35;;;;;;;8.23;5.60;;;8.30;99.90;;;;;;6238155;22;20187;-78
2022/09/29 06:59:02;;;;;;;6.38;5.78;;;8.30;99.90;;;;;;6234576;22;20245;-79
2022/09/29 07:01:30;;;;;;;6.15;5.60;;;8.40;99.90;;;;;;6234626;22;20313;-78
2022/09/29 07:03:59;;;;;;;6.10;5.60;;;8.30;99.90;;;;;;6233641;22;20198;-78
2022/09/29 07:06:29;;;;;;;6.80;6.20;;;8.60;99.90;;;;;;6233420;22;20638;-78
2022/09/29 07:08:57;;;;;;;8.18;6.38;;;8.50;99.90;;;;;;6233734;22;20190;-79
2022/09/29 07:11:24;;;;;;;6.55;5.57;;;8.30;99.90;;;;;;6233740;22;20566;-79
2022/09/29 07:13:52;;;;;;;5.10;4.70;;;8.40;99.90;;;;;;6240656;22;20758;-79
2022/09/29 07:16:22;;;;;;;6.20;5.60;;;8.50;99.90;;;;;;6254777;22;20186;-79
2022/09/29 07:18:50;;;;;;;6.47;4.97;;;8.50;99.90;;;;;;6217574;22;20575;-78
2022/09/29 07:21:17;;;;;;;6.05;5.20;;;8.60;99.90;;;;;;6237830;22;20218;-78
2022/09/29 07:23:47;;;;;;;5.90;5.28;;;8.70;99.90;;;;;;6234740;22;20650;-79
2022/09/29 07:26:15;;;;;;;5.68;5.18;;;8.70;99.90;;;;;;6241469;22;20295;-79
2022/09/29 07:28:42;;;;;;;7.50;6.25;;;8.80;99.90;;;;;;6235857;23;20252;-79
2022/09/29 07:31:11;;;;;;;6.75;5.80;;;8.90;99.90;;;;;;6238110;22;20271;-79
2022/09/29 07:33:39;;;;;;;7.68;6.93;;;8.90;99.90;;;;;;6236161;22;20190;-78
2022/09/29 07:36:06;;;;;;;7.55;6.85;;;9.10;99.90;;;;;;6247195;22;20220;-79
2022/09/29 07:38:33;;;;;;;7.07;6.38;;;9.10;99.90;;;;;;6234454;22;20184;-79
2022/09/29 07:41:03;;;;;;;7.32;6.63;;;9.20;99.90;;;;;;6216639;22;20209;-79
2022/09/29 07:43:30;;;;;;;6.93;6.22;;;9.30;99.90;;;;;;6231095;22;20306;-79
2022/09/29 07:45:59;;;;;;;7.50;6.15;;;9.30;99.90;;;;;;6238887;22;20260;-79
2022/09/29 07:48:26;;;;;;;6.78;6.18;;;9.50;99.90;;;;;;6232018;22;20181;-78
2022/09/29 07:51:01;;;;;;;8.65;6.70;;;9.50;99.90;;;;;;6219990;22;20220;-78
2022/09/29 07:53:28;;;;;;;6.70;6.15;;;9.70;99.90;;;;;;6230847;22;20210;-79
2022/09/29 07:55:55;;;;;;;7.50;6.70;;;9.90;99.90;;;;;;6240625;22;20584;-79
2022/09/29 07:58:23;;;;;;;7.50;5.43;;;10.00;99.90;;;;;;6238726;23;20187;-79
2022/09/29 08:00:54;;;;;;;6.47;5.97;;;10.10;99.90;;;;;;6238430;22;20220;-78
2022/09/29 08:03:24;;;;;;;6.82;6.15;;;10.20;99.90;;;;;;6237014;23;20588;-78
2022/09/29 08:05:51;;;;;;;6.00;5.50;;;10.40;99.90;;;;;;6234305;22;20193;-79
2022/09/29 08:08:18;;;;;;;5.20;4.75;;;10.50;99.90;;;;;;6237840;22;20284;-79
2022/09/29 08:10:45;;;;;;;8.75;5.70;;;10.60;99.90;;;;;;6240291;22;20211;-79
2022/09/29 08:13:12;;;;;;;6.45;5.45;;;10.60;99.90;;;;;;6232303;22;20682;-79
2022/09/29 08:15:41;;;;;;;6.30;5.70;;;10.60;99.90;;;;;;6213875;23;20213;-79
2022/09/29 08:18:07;;;;;;;7.22;6.32;;;10.70;99.90;;;;;;6232033;23;20188;-79
2022/09/29 08:20:36;;;;;;;5.60;5.10;;;10.70;99.90;;;;;;6231941;22;20284;-77
2022/09/29 08:23:03;;;;;;;7.10;5.90;;;10.70;99.90;;;;;;6268102;22;20187;-75
2022/09/29 08:25:30;;;;;;;5.65;4.90;;;10.80;99.90;;;;;;6238446;22;20186;-75
2022/09/29 08:27:57;;;;;;;5.50;4.93;;;10.90;99.90;;;;;;6229710;22;20191;-75
2022/09/29 08:30:24;;;;;;;6.22;4.55;;;11.10;99.90;;;;;;6232099;22;20196;-75
2022/09/29 08:32:53;;;;;;;4.95;4.47;;;11.30;99.90;;;;;;6230958;22;20212;-74
2022/09/29 08:35:20;;;;;;;6.10;5.40;;;11.60;99.90;;;;;;6233894;23;20177;-75
2022/09/29 08:37:47;;;;;;;4.38;3.78;;;11.80;99.90;;;;;;6234471;22;20181;-75
2022/09/29 08:40:15;;;;;;;5.50;4.00;;;12.00;99.90;;;;;;6228064;22;20259;-75
2022/09/29 08:42:50;;;;;;;4.10;3.70;;;12.20;99.90;;;;;;6216926;22;20703;-75
2022/09/29 08:45:24;;;;;;;4.07;3.00;;;12.40;99.90;;;;;;6230548;22;20212;-75
2022/09/29 08:47:59;;;;;;;3.25;2.90;;;12.60;99.90;;;;;;6238053;23;20429;-75
2022/09/29 08:50:30;;;;;;;3.13;2.93;;;12.70;99.90;;;;;;6236849;22;20319;-76
2022/09/29 08:53:01;;;;;;;3.70;3.40;;;12.90;99.90;;;;;;6238257;23;20466;-75
2022/09/29 08:55:34;;;;;;;4.43;3.90;;;13.10;99.90;;;;;;6236720;23;20437;-75
2022/09/29 08:58:02;;;;;;;3.50;3.20;;;13.30;99.90;;;;;;6228536;23;20458;-75
2022/09/29 09:00:39;;;;;;;3.83;3.43;;;13.80;99.90;;;;;;6221466;22;20450;-75
2022/09/29 09:03:34;;;;;;;3.70;3.40;;;14.20;99.90;;;;;;6229598;22;20452;-75
2022/09/29 09:06:11;;;;;;;3.40;3.20;;;14.70;99.90;;;;;;6183564;22;20498;-75
2022/09/29 09:08:53;;;;;;;3.37;3.07;;;15.10;99.90;;;;;;6238132;22;20930;-75
2022/09/29 09:11:36;;;;;;;3.50;3.20;;;15.20;99.90;;;;;;6231755;22;20610;-75
2022/09/29 09:14:14;;;;;;;4.30;3.53;;;15.30;99.90;;;;;;6239444;23;20787;-75
2022/09/29 09:16:53;;;;;;;3.60;3.30;;;15.00;99.90;;;;;;6256691;22;20432;-75
2022/09/29 09:19:48;;;;;;;4.10;3.17;;;15.10;99.90;;;;;;6239824;22;20561;-75
2022/09/29 09:22:22;;;;;;;3.00;2.80;;;15.30;99.90;;;;;;6237368;23;20465;-75
2022/09/29 09:24:56;;;;;;;2.50;2.30;;;15.80;99.90;;;;;;6237146;23;20472;-75
2022/09/29 09:27:26;;;;;;;2.80;2.60;;;16.20;99.90;;;;;;6237914;23;20835;-76
2022/09/29 09:30:03;;;;;;;2.87;2.40;;;16.50;99.90;;;;;;6239668;23;20457;-75
2022/09/29 09:32:36;;;;;;;2.43;1.90;;;16.60;99.90;;;;;;6234549;22;21072;-76
2022/09/29 09:35:24;;;;;;;2.67;2.30;;;16.40;99.90;;;;;;6238009;22;20482;-74
2022/09/29 09:37:53;;;;;;;3.20;2.90;;;16.20;99.90;;;;;;6226979;22;20947;-75
2022/09/29 09:40:23;;;;;;;3.93;3.60;;;16.00;99.90;;;;;;6235598;22;20476;-75
2022/09/29 09:42:55;;;;;;;4.30;4.00;;;15.90;99.90;;;;;;6237853;22;20446;-76
2022/09/29 09:45:29;;;;;;;3.93;3.63;;;15.70;99.90;;;;;;6237310;23;20429;-75
2022/09/29 09:48:03;;;;;;;3.73;3.43;;;15.20;99.90;;;;;;6232918;23;21103;-76
2022/09/29 09:50:32;;;;;;;5.30;3.70;;;14.90;99.90;;;;;;6242090;22;20995;-75
2022/09/29 09:53:03;;;;;;;4.50;3.50;;;14.80;99.90;;;;;;6241483;22;20461;-75
2022/09/29 09:55:35;;;;;;;3.77;3.23;;;14.80;99.90;;;;;;6238197;23;20871;-75
2022/09/29 09:58:35;;;;;;;3.80;3.43;;;14.70;99.90;;;;;;6239442;23;20776;-76
2022/09/29 10:01:05;;;;;;;3.00;2.80;;;14.70;99.90;;;;;;6172999;23;20874;-75
2022/09/29 10:03:33;;;;;;;3.40;3.10;;;14.50;99.90;;;;;;6251480;22;20965;-75
2022/09/29 10:06:01;;;;;;;4.70;3.53;;;14.20;99.90;;;;;;6237889;22;20876;-75
2022/09/29 10:08:37;;;;;;;3.73;3.27;;;14.10;99.90;;;;;;6247251;22;20430;-76
2022/09/29 10:11:05;;;;;;;3.40;2.80;;;14.10;99.90;;;;;;6235615;22;20456;-75
2022/09/29 10:13:32;;;;;;;3.73;3.27;;;14.20;99.90;;;;;;6242638;22;20475;-75
2022/09/29 10:16:08;;;;;;;3.10;2.80;;;14.30;99.90;;;;;;6237358;22;20447;-75
2022/09/29 10:18:39;;;;;;;4.43;2.57;;;14.50;99.90;;;;;;6238775;22;20436;-75
2022/09/29 10:21:21;;;;;;;3.83;2.50;;;14.60;99.90;;;;;;6239036;22;20468;-75
2022/09/29 10:23:51;;;;;;;3.00;2.70;;;14.70;99.90;;;;;;6238842;23;20466;-75
2022/09/29 10:26:24;;;;;;;4.00;2.77;;;14.70;99.90;;;;;;6237867;22;20428;-75
2022/09/29 10:28:55;;;;;;;4.93;2.60;;;14.60;99.90;;;;;;6233919;22;20456;-75
2022/09/29 10:31:25;;;;;;;5.40;3.00;;;14.80;99.90;;;;;;6236987;22;20500;-75
2022/09/29 10:33:56;;;;;;;4.00;2.10;;;15.00;99.90;;;;;;6237867;22;20553;-76
2022/09/29 10:36:27;;;;;;;3.80;1.93;;;15.10;99.90;;;;;;6243305;22;20470;-75
2022/09/29 10:38:55;;;;;;;4.47;2.07;;;15.30;99.90;;;;;;6237899;23;20974;-77
2022/09/29 10:41:24;;;;;;;2.07;1.70;;;15.50;99.90;;;;;;6233782;22;20470;-75
2022/09/29 10:43:52;;;;;;;2.60;2.30;;;15.60;99.90;;;;;;6238710;22;20494;-75
2022/09/29 10:46:48;;;;;;;3.40;2.43;;;15.70;99.90;;;;;;6267196;22;20437;-75
2022/09/29 10:49:17;;;;;;;4.87;2.40;;;15.90;99.90;;;;;;6243075;22;20442;-75
2022/09/29 10:51:57;;;;;;;2.73;2.50;;;16.20;99.90;;;;;;6238206;22;20454;-75
2022/09/29 10:54:26;;;;;;;2.63;2.43;;;16.60;99.90;;;;;;6217008;23;20459;-74
2022/09/29 10:56:54;;;;;;;2.70;2.50;;;16.80;99.90;;;;;;6237535;22;21196;-75
2022/09/29 10:59:23;;;;;;;5.10;2.90;;;17.10;99.90;;;;;;6240115;22;20494;-75
2022/09/29 11:01:53;;;;;;;2.67;2.30;;;17.60;99.90;;;;;;6240145;23;20503;-75
2022/09/29 11:04:24;;;;;;;2.83;2.57;;;18.10;99.90;;;;;;6237913;22;20517;-75
2022/09/29 11:06:53;;;;;;;2.73;2.50;;;18.60;99.90;;;;;;6234057;22;20462;-75
2022/09/29 11:09:28;;;;;;;3.70;3.27;;;18.60;99.90;;;;;;6238782;22;20473;-75
2022/09/29 11:11:57;;;;;;;3.03;2.73;;;18.80;99.90;;;;;;6238191;23;20929;-75
2022/09/29 11:14:26;;;;;;;2.90;2.30;;;19.00;99.90;;;;;;6251744;22;20452;-75
2022/09/29 11:16:56;;;;;;;3.57;2.17;;;19.50;99.90;;;;;;6235966;23;20460;-76
2022/09/29 11:19:23;;;;;;;4.80;2.40;;;20.00;99.90;;;;;;6235844;22;20436;-75
2022/09/29 11:22:51;;;;;;;3.37;2.50;;;20.30;99.90;;;;;;6238989;22;20439;-75
2022/09/29 11:25:32;;;;;;;2.60;2.30;;;20.20;99.90;;;;;;6135710;23;20498;-75
2022/09/29 11:28:13;;;;;;;2.90;2.10;;;19.70;99.90;;;;;;6242419;22;20447;-75
2022/09/29 11:30:52;;;;;;;3.17;2.10;;;19.20;99.90;;;;;;6237766;22;20461;-75
2022/09/29 11:33:30;;;;;;;3.60;2.83;;;19.20;99.90;;;;;;6224506;23;20575;-75
2022/09/29 11:36:04;;;;;;;3.10;2.20;;;18.50;99.90;;;;;;6240954;22;20535;-75
2022/09/29 11:38:48;;;;;;;3.53;2.20;;;18.20;99.90;;;;;;6238901;22;20438;-75
2022/09/29 11:41:32;;;;;;;2.40;2.20;;;18.00;99.90;;;;;;6235108;22;20457;-75
2022/09/29 11:44:08;;;;;;;3.60;2.20;;;17.90;99.90;;;;;;6227601;23;20972;-75
2022/09/29 11:46:49;;;;;;;2.17;1.93;;;17.90;99.90;;;;;;6237542;22;20447;-76
2022/09/29 11:49:28;;;;;;;3.27;2.37;;;17.80;99.90;;;;;;6236557;22;20456;-74
2022/09/29 11:52:10;;;;;;;2.90;2.00;;;17.70;99.90;;;;;;6228185;22;20516;-75
2022/09/29 11:55:02;;;;;;;2.83;1.87;;;17.70;99.90;;;;;;6225641;22;20441;-74
2022/09/29 11:57:44;;;;;;;2.10;1.70;;;17.60;99.90;;;;;;6237050;22;20430;-79
2022/09/29 12:00:13;;;;;;;2.27;1.53;;;17.40;99.90;;;;;;6232970;22;20541;-82
2022/09/29 12:03:05;;;;;;;2.03;1.57;;;17.30;99.90;;;;;;6237018;22;20525;-81
2022/09/29 12:05:48;;;;;;;2.20;1.87;;;17.00;99.90;;;;;;6232749;22;20460;-80
2022/09/29 12:08:29;;;;;;;2.40;2.00;;;17.00;99.90;;;;;;6235450;22;22159;-82
2022/09/29 12:11:03;;;;;;;3.20;1.80;;;16.80;99.90;;;;;;6230749;22;21050;-81
2022/09/29 12:13:40;;;;;;;1.80;1.70;;;16.90;99.90;;;;;;6231224;22;20458;-81
2022/09/29 12:16:11;;;;;;;2.77;1.90;;;17.00;99.90;;;;;;6238653;22;20936;-80
2022/09/29 12:18:42;;;;;;;2.43;1.90;;;16.80;99.90;;;;;;6237592;22;20442;-82
2022/09/29 12:21:11;;;;;;;2.10;1.93;;;16.70;99.90;;;;;;6233016;22;20461;-81
2022/09/29 12:23:40;;;;;;;2.77;2.00;;;16.80;99.90;;;;;;6236013;22;20441;-80
2022/09/29 12:26:13;;;;;;;2.47;2.27;;;16.40;99.90;;;;;;6230620;22;20434;-80
2022/09/29 12:28:48;;;;;;;2.80;2.10;;;16.30;99.90;;;;;;6222329;22;20437;-80
2022/09/29 12:31:20;;;;;;;3.40;2.43;;;16.50;99.90;;;;;;6231020;22;20489;-81
2022/09/29 12:33:50;;;;;;;2.90;2.07;;;16.60;99.90;;;;;;6236730;22;20487;-81
2022/09/29 12:36:45;;;;;;;2.13;1.93;;;16.80;99.90;;;;;;6245288;22;20509;-80
2022/09/29 12:39:31;;;;;;;2.27;2.00;;;16.70;99.90;;;;;;6227801;22;20513;-81
2022/09/29 12:42:10;;;;;;;2.47;2.00;;;16.70;99.90;;;;;;6237973;22;20449;-80
2022/09/29 12:44:44;;;;;;;3.50;2.00;;;16.70;99.90;;;;;;6238058;22;20858;-80
2022/09/29 12:47:19;;;;;;;2.53;1.63;;;16.80;99.90;;;;;;6240751;22;20449;-77
2022/09/29 12:50:00;;;;;;;2.80;2.00;;;16.90;99.90;;;;;;6232636;22;20480;-81
2022/09/29 12:52:34;;;;;;;2.60;2.23;;;17.20;99.90;;;;;;6237182;22;20821;-78
2022/09/29 12:55:04;;;;;;;2.47;2.20;;;17.30;99.90;;;;;;6215696;22;20437;-79
2022/09/29 12:57:36;;;;;;;2.77;1.90;;;17.40;99.90;;;;;;6217248;22;20433;-79
2022/09/29 13:00:08;;;;;;;4.20;3.70;;;17.50;99.90;;;;;;6224578;22;20476;-77
2022/09/29 13:03:01;;;;;;;3.97;2.13;;;17.50;99.90;;;;;;6238167;22;20494;-80
2022/09/29 13:05:53;;;;;;;2.63;2.10;;;17.60;99.90;;;;;;6223500;22;20466;-79
2022/09/29 13:08:43;;;;;;;4.53;3.70;;;17.40;99.90;;;;;;6236152;22;20509;-79
2022/09/29 13:11:26;;;;;;;3.23;2.40;;;17.30;99.90;;;;;;6229875;22;20457;-79
2022/09/29 13:14:21;;;;;;;6.20;5.60;;;17.00;99.90;;;;;;6208410;22;20475;-80
2022/09/29 13:16:59;;;;;;;4.20;2.10;;;16.90;99.90;;;;;;6223935;22;20472;-80
2022/09/29 13:20:02;;;;;;;4.13;2.33;;;16.50;99.90;;;;;;6217386;22;20536;-81